sensor_id;sensor_type;location;lat;lon;timestamp;P1;durP1;ratioP1;P2;durP2;ratioP2
34832;SDS011;55941;50.800;4.342;2023-02-28T00:01:23;9.18;;;4.60;;
34832;SDS011;55941;50.800;4.342;2023-02-28T00:03:49;8.90;;;4.68;;
34832;SDS011;55941;50.800;4.342;2023-02-28T00:06:15;15.07;;;5.45;;
34832;SDS011;55941;50.800;4.342;2023-02-28T00:08:41;12.77;;;4.82;;
34832;SDS011;55941;50.800;4.342;2023-02-28T00:11:09;14.27;;;4.55;;
34832;SDS011;55941;50.800;4.342;2023-02-28T00:13:46;15.07;;;4.95;;
34832;SDS011;55941;50.800;4.342;2023-02-28T00:16:15;12.57;;;4.57;;
34832;SDS011;55941;50.800;4.342;2023-02-28T00:18:46;13.95;;;4.65;;
34832;SDS011;55941;50.800;4.342;2023-02-28T00:21:12;12.25;;;4.50;;
34832;SDS011;55941;50.800;4.342;2023-02-28T00:23:38;13.63;;;4.20;;
34832;SDS011;55941;50.800;4.342;2023-02-28T00:26:04;9.60;;;4.25;;
34832;SDS011;55941;50.800;4.342;2023-02-28T00:28:31;9.90;;;4.07;;
34832;SDS011;55941;50.800;4.342;2023-02-28T00:30:57;11.30;;;4.50;;
34832;SDS011;55941;50.800;4.342;2023-02-28T00:33:25;18.30;;;4.22;;
34832;SDS011;55941;50.800;4.342;2023-02-28T00:35:51;14.02;;;4.45;;
34832;SDS011;55941;50.800;4.342;2023-02-28T00:38:17;12.25;;;4.63;;
34832;SDS011;55941;50.800;4.342;2023-02-28T00:40:43;8.93;;;4.60;;
34832;SDS011;55941;50.800;4.342;2023-02-28T00:43:09;13.63;;;4.50;;
34832;SDS011;55941;50.800;4.342;2023-02-28T00:45:35;11.63;;;4.40;;
34832;SDS011;55941;50.800;4.342;2023-02-28T00:48:03;12.07;;;4.03;;
34832;SDS011;55941;50.800;4.342;2023-02-28T00:50:30;15.73;;;5.07;;
34832;SDS011;55941;50.800;4.342;2023-02-28T00:52:56;12.65;;;4.93;;
34832;SDS011;55941;50.800;4.342;2023-02-28T00:55:22;12.85;;;3.92;;
34832;SDS011;55941;50.800;4.342;2023-02-28T00:57:48;10.73;;;4.30;;
34832;SDS011;55941;50.800;4.342;2023-02-28T01:00:15;9.93;;;4.20;;
34832;SDS011;55941;50.800;4.342;2023-02-28T01:02:40;11.52;;;4.30;;
34832;SDS011;55941;50.800;4.342;2023-02-28T01:05:06;12.38;;;4.65;;
34832;SDS011;55941;50.800;4.342;2023-02-28T01:07:33;10.10;;;4.47;;
34832;SDS011;55941;50.800;4.342;2023-02-28T01:09:59;9.68;;;3.75;;
34832;SDS011;55941;50.800;4.342;2023-02-28T01:12:24;10.63;;;4.82;;
34832;SDS011;55941;50.800;4.342;2023-02-28T01:14:51;9.40;;;4.45;;
34832;SDS011;55941;50.800;4.342;2023-02-28T01:17:16;13.70;;;4.53;;
34832;SDS011;55941;50.800;4.342;2023-02-28T01:19:42;10.10;;;4.75;;
34832;SDS011;55941;50.800;4.342;2023-02-28T01:22:08;10.82;;;4.32;;
34832;SDS011;55941;50.800;4.342;2023-02-28T01:24:34;9.27;;;4.22;;
34832;SDS011;55941;50.800;4.342;2023-02-28T01:27:00;14.05;;;4.80;;
34832;SDS011;55941;50.800;4.342;2023-02-28T01:29:26;10.80;;;4.63;;
34832;SDS011;55941;50.800;4.342;2023-02-28T01:31:52;10.23;;;4.55;;
34832;SDS011;55941;50.800;4.342;2023-02-28T01:34:18;14.80;;;4.72;;
34832;SDS011;55941;50.800;4.342;2023-02-28T01:36:46;13.48;;;4.95;;
34832;SDS011;55941;50.800;4.342;2023-02-28T01:39:12;8.93;;;4.03;;
34832;SDS011;55941;50.800;4.342;2023-02-28T01:41:38;12.48;;;4.78;;
34832;SDS011;55941;50.800;4.342;2023-02-28T01:44:06;11.70;;;4.78;;
34832;SDS011;55941;50.800;4.342;2023-02-28T01:46:50;20.50;;;4.88;;
34832;SDS011;55941;50.800;4.342;2023-02-28T01:49:16;14.10;;;5.15;;
34832;SDS011;55941;50.800;4.342;2023-02-28T01:51:44;11.77;;;4.93;;
34832;SDS011;55941;50.800;4.342;2023-02-28T01:54:34;10.05;;;4.32;;
34832;SDS011;55941;50.800;4.342;2023-02-28T01:57:12;11.27;;;5.38;;
34832;SDS011;55941;50.800;4.342;2023-02-28T01:59:52;14.30;;;5.10;;
34832;SDS011;55941;50.800;4.342;2023-02-28T02:05:09;11.63;;;4.78;;
34832;SDS011;55941;50.800;4.342;2023-02-28T02:07:39;10.52;;;4.60;;
34832;SDS011;55941;50.800;4.342;2023-02-28T02:12:55;11.43;;;4.90;;
34832;SDS011;55941;50.800;4.342;2023-02-28T02:15:34;15.70;;;4.90;;
34832;SDS011;55941;50.800;4.342;2023-02-28T02:32:22;10.20;;;5.20;;
34832;SDS011;55941;50.800;4.342;2023-02-28T02:40:23;12.30;;;5.63;;
34832;SDS011;55941;50.800;4.342;2023-02-28T02:43:05;11.30;;;5.78;;
34832;SDS011;55941;50.800;4.342;2023-02-28T02:45:38;15.68;;;5.75;;
34832;SDS011;55941;50.800;4.342;2023-02-28T02:48:09;11.80;;;5.00;;
34832;SDS011;55941;50.800;4.342;2023-02-28T02:50:42;12.82;;;5.28;;
34832;SDS011;55941;50.800;4.342;2023-02-28T02:53:11;12.70;;;6.07;;
34832;SDS011;55941;50.800;4.342;2023-02-28T02:55:41;13.10;;;5.50;;
34832;SDS011;55941;50.800;4.342;2023-02-28T02:58:11;11.40;;;6.15;;
34832;SDS011;55941;50.800;4.342;2023-02-28T03:00:46;13.20;;;6.07;;
34832;SDS011;55941;50.800;4.342;2023-02-28T03:03:15;12.32;;;6.05;;
34832;SDS011;55941;50.800;4.342;2023-02-28T03:05:49;11.93;;;6.22;;
34832;SDS011;55941;50.800;4.342;2023-02-28T03:08:18;15.00;;;5.95;;
34832;SDS011;55941;50.800;4.342;2023-02-28T03:10:46;15.15;;;6.53;;
34832;SDS011;55941;50.800;4.342;2023-02-28T03:24:08;19.85;;;6.55;;
34832;SDS011;55941;50.800;4.342;2023-02-28T03:26:41;15.82;;;7.03;;
34832;SDS011;55941;50.800;4.342;2023-02-28T03:31:53;19.00;;;6.50;;
34832;SDS011;55941;50.800;4.342;2023-02-28T03:34:35;20.52;;;7.65;;
34832;SDS011;55941;50.800;4.342;2023-02-28T03:37:05;20.88;;;7.38;;
34832;SDS011;55941;50.800;4.342;2023-02-28T03:39:38;21.63;;;7.75;;
34832;SDS011;55941;50.800;4.342;2023-02-28T03:42:12;14.15;;;7.00;;
34832;SDS011;55941;50.800;4.342;2023-02-28T03:44:42;15.98;;;7.18;;
34832;SDS011;55941;50.800;4.342;2023-02-28T03:52:25;13.82;;;6.97;;
34832;SDS011;55941;50.800;4.342;2023-02-28T03:54:56;14.93;;;7.05;;
34832;SDS011;55941;50.800;4.342;2023-02-28T03:57:32;16.52;;;7.35;;
34832;SDS011;55941;50.800;4.342;2023-02-28T04:00:19;18.60;;;7.65;;
34832;SDS011;55941;50.800;4.342;2023-02-28T04:02:50;13.45;;;7.35;;
34832;SDS011;55941;50.800;4.342;2023-02-28T04:05:18;17.42;;;7.82;;
34832;SDS011;55941;50.800;4.342;2023-02-28T04:07:45;15.93;;;7.60;;
34832;SDS011;55941;50.800;4.342;2023-02-28T04:10:11;25.10;;;8.13;;
34832;SDS011;55941;50.800;4.342;2023-02-28T04:12:38;19.52;;;8.27;;
34832;SDS011;55941;50.800;4.342;2023-02-28T04:15:04;13.70;;;6.85;;
34832;SDS011;55941;50.800;4.342;2023-02-28T04:17:30;17.73;;;7.43;;
34832;SDS011;55941;50.800;4.342;2023-02-28T04:19:56;19.25;;;8.05;;
34832;SDS011;55941;50.800;4.342;2023-02-28T04:22:22;12.52;;;7.47;;
34832;SDS011;55941;50.800;4.342;2023-02-28T04:24:51;16.23;;;8.23;;
34832;SDS011;55941;50.800;4.342;2023-02-28T04:27:20;23.95;;;8.40;;
34832;SDS011;55941;50.800;4.342;2023-02-28T04:29:48;23.23;;;8.00;;
34832;SDS011;55941;50.800;4.342;2023-02-28T04:32:14;20.77;;;8.52;;
34832;SDS011;55941;50.800;4.342;2023-02-28T04:34:40;17.98;;;8.35;;
34832;SDS011;55941;50.800;4.342;2023-02-28T04:37:06;20.92;;;8.50;;
34832;SDS011;55941;50.800;4.342;2023-02-28T04:39:34;17.95;;;9.30;;
34832;SDS011;55941;50.800;4.342;2023-02-28T04:42:01;21.33;;;8.10;;
34832;SDS011;55941;50.800;4.342;2023-02-28T04:44:27;17.23;;;8.55;;
34832;SDS011;55941;50.800;4.342;2023-02-28T04:46:53;21.10;;;9.13;;
34832;SDS011;55941;50.800;4.342;2023-02-28T04:49:19;21.02;;;8.60;;
34832;SDS011;55941;50.800;4.342;2023-02-28T04:51:45;22.73;;;8.85;;
34832;SDS011;55941;50.800;4.342;2023-02-28T04:54:11;25.88;;;9.18;;
34832;SDS011;55941;50.800;4.342;2023-02-28T04:56:38;16.42;;;8.82;;
34832;SDS011;55941;50.800;4.342;2023-02-28T04:59:04;17.42;;;9.80;;
34832;SDS011;55941;50.800;4.342;2023-02-28T05:01:32;15.02;;;8.43;;
34832;SDS011;55941;50.800;4.342;2023-02-28T05:04:00;23.38;;;8.63;;
34832;SDS011;55941;50.800;4.342;2023-02-28T05:06:28;21.23;;;8.77;;
34832;SDS011;55941;50.800;4.342;2023-02-28T05:08:55;19.42;;;8.63;;
34832;SDS011;55941;50.800;4.342;2023-02-28T05:11:24;17.38;;;8.68;;
34832;SDS011;55941;50.800;4.342;2023-02-28T05:14:08;22.00;;;9.35;;
34832;SDS011;55941;50.800;4.342;2023-02-28T05:16:41;23.05;;;8.32;;
34832;SDS011;55941;50.800;4.342;2023-02-28T05:19:07;18.80;;;8.77;;
34832;SDS011;55941;50.800;4.342;2023-02-28T05:21:34;28.23;;;9.48;;
34832;SDS011;55941;50.800;4.342;2023-02-28T05:24:04;20.00;;;9.20;;
34832;SDS011;55941;50.800;4.342;2023-02-28T05:26:35;13.18;;;8.13;;
34832;SDS011;55941;50.800;4.342;2023-02-28T05:29:03;18.30;;;8.05;;
34832;SDS011;55941;50.800;4.342;2023-02-28T05:34:16;18.25;;;8.40;;
34832;SDS011;55941;50.800;4.342;2023-02-28T05:36:42;22.88;;;9.88;;
34832;SDS011;55941;50.800;4.342;2023-02-28T05:39:08;17.48;;;8.40;;
34832;SDS011;55941;50.800;4.342;2023-02-28T05:41:39;17.25;;;8.90;;
34832;SDS011;55941;50.800;4.342;2023-02-28T05:44:06;15.15;;;8.85;;
34832;SDS011;55941;50.800;4.342;2023-02-28T05:46:33;18.17;;;9.15;;
34832;SDS011;55941;50.800;4.342;2023-02-28T05:48:59;17.60;;;8.23;;
34832;SDS011;55941;50.800;4.342;2023-02-28T05:51:26;19.98;;;9.38;;
34832;SDS011;55941;50.800;4.342;2023-02-28T05:53:52;21.20;;;9.02;;
34832;SDS011;55941;50.800;4.342;2023-02-28T05:56:18;17.92;;;9.40;;
34832;SDS011;55941;50.800;4.342;2023-02-28T05:58:46;20.45;;;8.73;;
34832;SDS011;55941;50.800;4.342;2023-02-28T06:01:19;15.75;;;8.82;;
34832;SDS011;55941;50.800;4.342;2023-02-28T06:03:47;15.50;;;9.32;;
34832;SDS011;55941;50.800;4.342;2023-02-28T06:06:13;18.63;;;7.90;;
34832;SDS011;55941;50.800;4.342;2023-02-28T06:08:39;19.92;;;7.47;;
34832;SDS011;55941;50.800;4.342;2023-02-28T06:11:06;20.75;;;8.95;;
34832;SDS011;55941;50.800;4.342;2023-02-28T06:13:33;13.98;;;8.25;;
34832;SDS011;55941;50.800;4.342;2023-02-28T06:16:02;17.63;;;8.57;;
34832;SDS011;55941;50.800;4.342;2023-02-28T06:18:28;18.00;;;9.40;;
34832;SDS011;55941;50.800;4.342;2023-02-28T06:20:55;22.48;;;8.35;;
34832;SDS011;55941;50.800;4.342;2023-02-28T06:23:22;19.27;;;8.63;;
34832;SDS011;55941;50.800;4.342;2023-02-28T06:25:49;14.40;;;8.02;;
34832;SDS011;55941;50.800;4.342;2023-02-28T06:28:15;30.27;;;8.48;;
34832;SDS011;55941;50.800;4.342;2023-02-28T06:30:41;20.75;;;8.40;;
34832;SDS011;55941;50.800;4.342;2023-02-28T06:33:07;21.58;;;8.13;;
34832;SDS011;55941;50.800;4.342;2023-02-28T06:35:33;20.17;;;8.35;;
34832;SDS011;55941;50.800;4.342;2023-02-28T06:37:59;19.15;;;8.68;;
34832;SDS011;55941;50.800;4.342;2023-02-28T06:40:25;22.85;;;8.10;;
34832;SDS011;55941;50.800;4.342;2023-02-28T06:42:51;25.05;;;8.65;;
34832;SDS011;55941;50.800;4.342;2023-02-28T06:45:17;15.20;;;7.97;;
34832;SDS011;55941;50.800;4.342;2023-02-28T06:47:44;16.92;;;8.48;;
34832;SDS011;55941;50.800;4.342;2023-02-28T06:50:11;23.77;;;8.73;;
34832;SDS011;55941;50.800;4.342;2023-02-28T06:52:38;21.27;;;8.70;;
34832;SDS011;55941;50.800;4.342;2023-02-28T06:55:04;19.75;;;8.02;;
34832;SDS011;55941;50.800;4.342;2023-02-28T06:57:32;14.65;;;7.57;;
34832;SDS011;55941;50.800;4.342;2023-02-28T07:00:00;19.27;;;8.18;;
34832;SDS011;55941;50.800;4.342;2023-02-28T07:02:33;21.33;;;8.68;;
34832;SDS011;55941;50.800;4.342;2023-02-28T07:05:00;13.05;;;7.32;;
34832;SDS011;55941;50.800;4.342;2023-02-28T07:07:26;26.20;;;7.88;;
34832;SDS011;55941;50.800;4.342;2023-02-28T07:09:51;28.95;;;9.00;;
34832;SDS011;55941;50.800;4.342;2023-02-28T07:12:18;19.33;;;8.70;;
34832;SDS011;55941;50.800;4.342;2023-02-28T07:14:44;19.27;;;8.40;;
34832;SDS011;55941;50.800;4.342;2023-02-28T07:17:10;14.85;;;7.75;;
34832;SDS011;55941;50.800;4.342;2023-02-28T07:19:38;19.55;;;7.57;;
34832;SDS011;55941;50.800;4.342;2023-02-28T07:22:04;20.45;;;7.75;;
34832;SDS011;55941;50.800;4.342;2023-02-28T07:24:31;21.15;;;7.95;;
34832;SDS011;55941;50.800;4.342;2023-02-28T07:26:57;14.48;;;7.40;;
34832;SDS011;55941;50.800;4.342;2023-02-28T07:29:24;19.42;;;6.88;;
34832;SDS011;55941;50.800;4.342;2023-02-28T07:31:50;15.10;;;8.23;;
34832;SDS011;55941;50.800;4.342;2023-02-28T07:34:18;18.17;;;7.53;;
34832;SDS011;55941;50.800;4.342;2023-02-28T07:36:44;17.55;;;7.35;;
34832;SDS011;55941;50.800;4.342;2023-02-28T07:39:10;14.07;;;6.25;;
34832;SDS011;55941;50.800;4.342;2023-02-28T07:41:36;19.73;;;6.53;;
34832;SDS011;55941;50.800;4.342;2023-02-28T07:44:08;20.25;;;7.07;;
34832;SDS011;55941;50.800;4.342;2023-02-28T07:46:35;13.52;;;6.53;;
34832;SDS011;55941;50.800;4.342;2023-02-28T07:49:01;18.77;;;7.15;;
34832;SDS011;55941;50.800;4.342;2023-02-28T07:51:28;16.17;;;6.55;;
34832;SDS011;55941;50.800;4.342;2023-02-28T07:53:55;18.67;;;6.45;;
34832;SDS011;55941;50.800;4.342;2023-02-28T07:56:21;12.70;;;6.18;;
34832;SDS011;55941;50.800;4.342;2023-02-28T07:58:47;21.60;;;6.28;;
34832;SDS011;55941;50.800;4.342;2023-02-28T08:01:13;16.33;;;5.72;;
34832;SDS011;55941;50.800;4.342;2023-02-28T08:03:40;22.15;;;6.35;;
34832;SDS011;55941;50.800;4.342;2023-02-28T08:06:07;9.55;;;5.35;;
34832;SDS011;55941;50.800;4.342;2023-02-28T08:08:39;22.63;;;5.55;;
34832;SDS011;55941;50.800;4.342;2023-02-28T08:11:06;17.20;;;5.40;;
34832;SDS011;55941;50.800;4.342;2023-02-28T08:13:32;16.55;;;5.43;;
34832;SDS011;55941;50.800;4.342;2023-02-28T08:16:00;11.95;;;5.78;;
34832;SDS011;55941;50.800;4.342;2023-02-28T08:18:27;10.73;;;5.10;;
34832;SDS011;55941;50.800;4.342;2023-02-28T08:20:52;12.13;;;5.00;;
34832;SDS011;55941;50.800;4.342;2023-02-28T08:23:19;13.02;;;4.72;;
34832;SDS011;55941;50.800;4.342;2023-02-28T08:25:45;11.77;;;5.05;;
34832;SDS011;55941;50.800;4.342;2023-02-28T08:28:19;8.13;;;4.15;;
34832;SDS011;55941;50.800;4.342;2023-02-28T08:30:45;8.07;;;4.43;;
34832;SDS011;55941;50.800;4.342;2023-02-28T08:33:11;24.35;;;5.40;;
34832;SDS011;55941;50.800;4.342;2023-02-28T08:35:37;7.72;;;3.92;;
34832;SDS011;55941;50.800;4.342;2023-02-28T08:38:03;10.68;;;4.53;;
34832;SDS011;55941;50.800;4.342;2023-02-28T08:40:29;11.30;;;4.80;;
34832;SDS011;55941;50.800;4.342;2023-02-28T08:42:58;9.73;;;4.75;;
34832;SDS011;55941;50.800;4.342;2023-02-28T08:45:25;7.97;;;4.03;;
34832;SDS011;55941;50.800;4.342;2023-02-28T08:47:51;9.48;;;4.55;;
34832;SDS011;55941;50.800;4.342;2023-02-28T08:50:20;17.13;;;5.10;;
34832;SDS011;55941;50.800;4.342;2023-02-28T08:52:46;11.82;;;4.32;;
34832;SDS011;55941;50.800;4.342;2023-02-28T08:55:12;9.45;;;4.55;;
34832;SDS011;55941;50.800;4.342;2023-02-28T08:57:38;18.55;;;4.97;;
34832;SDS011;55941;50.800;4.342;2023-02-28T09:00:05;12.63;;;4.63;;
34832;SDS011;55941;50.800;4.342;2023-02-28T09:02:32;8.90;;;4.22;;
34832;SDS011;55941;50.800;4.342;2023-02-28T09:04:58;8.25;;;4.88;;
34832;SDS011;55941;50.800;4.342;2023-02-28T09:07:24;7.75;;;4.13;;
34832;SDS011;55941;50.800;4.342;2023-02-28T09:09:51;11.90;;;4.57;;
34832;SDS011;55941;50.800;4.342;2023-02-28T09:12:23;11.00;;;4.43;;
34832;SDS011;55941;50.800;4.342;2023-02-28T09:14:50;11.57;;;3.17;;
34832;SDS011;55941;50.800;4.342;2023-02-28T09:17:17;6.95;;;4.07;;
34832;SDS011;55941;50.800;4.342;2023-02-28T09:19:43;8.52;;;4.03;;
34832;SDS011;55941;50.800;4.342;2023-02-28T09:22:09;6.38;;;3.70;;
34832;SDS011;55941;50.800;4.342;2023-02-28T09:24:36;13.88;;;4.60;;
34832;SDS011;55941;50.800;4.342;2023-02-28T09:27:03;9.68;;;4.03;;
34832;SDS011;55941;50.800;4.342;2023-02-28T09:29:30;9.43;;;4.20;;
34832;SDS011;55941;50.800;4.342;2023-02-28T09:31:56;6.72;;;3.25;;
34832;SDS011;55941;50.800;4.342;2023-02-28T09:34:25;11.93;;;3.65;;
34832;SDS011;55941;50.800;4.342;2023-02-28T09:36:53;14.15;;;4.43;;
34832;SDS011;55941;50.800;4.342;2023-02-28T09:39:20;17.45;;;3.15;;
34832;SDS011;55941;50.800;4.342;2023-02-28T09:41:47;8.25;;;3.40;;
34832;SDS011;55941;50.800;4.342;2023-02-28T09:44:19;7.85;;;3.30;;
34832;SDS011;55941;50.800;4.342;2023-02-28T09:46:47;5.95;;;3.50;;
34832;SDS011;55941;50.800;4.342;2023-02-28T09:49:19;12.93;;;4.32;;
34832;SDS011;55941;50.800;4.342;2023-02-28T09:54:41;7.32;;;2.95;;
34832;SDS011;55941;50.800;4.342;2023-02-28T09:57:10;4.20;;;2.50;;
34832;SDS011;55941;50.800;4.342;2023-02-28T10:05:17;8.23;;;2.75;;
34832;SDS011;55941;50.800;4.342;2023-02-28T10:10:39;7.65;;;2.60;;
34832;SDS011;55941;50.800;4.342;2023-02-28T10:15:51;5.55;;;2.33;;
34832;SDS011;55941;50.800;4.342;2023-02-28T10:18:23;2.78;;;1.92;;
34832;SDS011;55941;50.800;4.342;2023-02-28T10:20:51;6.47;;;2.10;;
34832;SDS011;55941;50.800;4.342;2023-02-28T10:23:22;7.82;;;2.33;;
34832;SDS011;55941;50.800;4.342;2023-02-28T10:26:00;8.52;;;2.80;;
34832;SDS011;55941;50.800;4.342;2023-02-28T10:28:35;9.77;;;2.92;;
34832;SDS011;55941;50.800;4.342;2023-02-28T10:31:01;17.52;;;4.47;;
34832;SDS011;55941;50.800;4.342;2023-02-28T10:33:34;9.23;;;2.45;;
34832;SDS011;55941;50.800;4.342;2023-02-28T10:36:01;5.80;;;2.67;;
34832;SDS011;55941;50.800;4.342;2023-02-28T10:38:35;13.35;;;2.38;;
34832;SDS011;55941;50.800;4.342;2023-02-28T10:41:10;14.63;;;2.65;;
34832;SDS011;55941;50.800;4.342;2023-02-28T10:43:39;4.22;;;2.22;;
34832;SDS011;55941;50.800;4.342;2023-02-28T10:48:37;2.63;;;1.55;;
34832;SDS011;55941;50.800;4.342;2023-02-28T10:51:11;7.47;;;2.05;;
34832;SDS011;55941;50.800;4.342;2023-02-28T11:01:27;3.30;;;1.80;;
34832;SDS011;55941;50.800;4.342;2023-02-28T11:04:20;3.47;;;2.05;;
34832;SDS011;55941;50.800;4.342;2023-02-28T11:07:16;4.35;;;2.17;;
34832;SDS011;55941;50.800;4.342;2023-02-28T11:09:44;4.50;;;2.10;;
34832;SDS011;55941;50.800;4.342;2023-02-28T11:12:21;11.90;;;2.30;;
34832;SDS011;55941;50.800;4.342;2023-02-28T11:14:49;5.35;;;2.00;;
34832;SDS011;55941;50.800;4.342;2023-02-28T11:17:24;6.50;;;2.05;;
34832;SDS011;55941;50.800;4.342;2023-02-28T11:19:58;5.55;;;2.10;;
34832;SDS011;55941;50.800;4.342;2023-02-28T11:22:39;4.72;;;2.08;;
34832;SDS011;55941;50.800;4.342;2023-02-28T11:25:15;10.32;;;2.05;;
34832;SDS011;55941;50.800;4.342;2023-02-28T11:27:47;4.03;;;1.92;;
34832;SDS011;55941;50.800;4.342;2023-02-28T11:32:55;4.15;;;1.90;;
34832;SDS011;55941;50.800;4.342;2023-02-28T11:35:39;3.58;;;1.80;;
34832;SDS011;55941;50.800;4.342;2023-02-28T11:38:09;9.70;;;2.13;;
34832;SDS011;55941;50.800;4.342;2023-02-28T11:48:44;4.43;;;2.20;;
34832;SDS011;55941;50.800;4.342;2023-02-28T11:54:03;2.78;;;1.67;;
34832;SDS011;55941;50.800;4.342;2023-02-28T12:08:02;4.30;;;2.10;;
34832;SDS011;55941;50.800;4.342;2023-02-28T12:19:03;6.78;;;2.00;;
34832;SDS011;55941;50.800;4.342;2023-02-28T12:27:06;9.38;;;2.10;;
34832;SDS011;55941;50.800;4.342;2023-02-28T12:35:10;7.60;;;1.85;;
34832;SDS011;55941;50.800;4.342;2023-02-28T12:37:41;2.80;;;1.50;;
34832;SDS011;55941;50.800;4.342;2023-02-28T12:40:13;3.70;;;2.15;;
34832;SDS011;55941;50.800;4.342;2023-02-28T12:42:49;7.38;;;1.73;;
34832;SDS011;55941;50.800;4.342;2023-02-28T12:45:20;6.13;;;1.77;;
34832;SDS011;55941;50.800;4.342;2023-02-28T12:48:05;6.13;;;1.92;;
34832;SDS011;55941;50.800;4.342;2023-02-28T12:50:35;2.35;;;1.30;;
34832;SDS011;55941;50.800;4.342;2023-02-28T12:53:06;2.95;;;1.58;;
34832;SDS011;55941;50.800;4.342;2023-02-28T12:56:17;2.65;;;1.60;;
34832;SDS011;55941;50.800;4.342;2023-02-28T12:58:50;2.58;;;1.50;;
34832;SDS011;55941;50.800;4.342;2023-02-28T13:09:22;3.38;;;1.80;;
34832;SDS011;55941;50.800;4.342;2023-02-28T13:11:48;4.25;;;1.65;;
34832;SDS011;55941;50.800;4.342;2023-02-28T13:19:44;3.42;;;1.70;;
34832;SDS011;55941;50.800;4.342;2023-02-28T13:22:16;2.17;;;1.50;;
34832;SDS011;55941;50.800;4.342;2023-02-28T13:25:03;2.13;;;1.52;;
34832;SDS011;55941;50.800;4.342;2023-02-28T13:27:51;7.07;;;1.60;;
34832;SDS011;55941;50.800;4.342;2023-02-28T13:33:30;2.30;;;1.55;;
34832;SDS011;55941;50.800;4.342;2023-02-28T13:38:45;5.30;;;1.63;;
34832;SDS011;55941;50.800;4.342;2023-02-28T13:49:25;8.30;;;2.10;;
34832;SDS011;55941;50.800;4.342;2023-02-28T13:52:09;5.47;;;1.90;;
34832;SDS011;55941;50.800;4.342;2023-02-28T13:54:50;3.50;;;1.63;;
34832;SDS011;55941;50.800;4.342;2023-02-28T14:03:21;3.35;;;1.73;;
34832;SDS011;55941;50.800;4.342;2023-02-28T14:11:33;4.80;;;1.55;;
34832;SDS011;55941;50.800;4.342;2023-02-28T14:16:28;9.43;;;1.73;;
34832;SDS011;55941;50.800;4.342;2023-02-28T14:19:14;3.58;;;1.85;;
34832;SDS011;55941;50.800;4.342;2023-02-28T14:22:38;6.25;;;1.85;;
34832;SDS011;55941;50.800;4.342;2023-02-28T14:36:37;4.32;;;1.80;;
34832;SDS011;55941;50.800;4.342;2023-02-28T14:39:07;3.92;;;1.90;;
34832;SDS011;55941;50.800;4.342;2023-02-28T14:41:41;3.20;;;1.50;;
34832;SDS011;55941;50.800;4.342;2023-02-28T14:44:16;7.65;;;2.00;;
34832;SDS011;55941;50.800;4.342;2023-02-28T14:46:50;5.43;;;2.20;;
34832;SDS011;55941;50.800;4.342;2023-02-28T14:49:29;4.10;;;1.70;;
34832;SDS011;55941;50.800;4.342;2023-02-28T14:54:51;4.93;;;1.70;;
34832;SDS011;55941;50.800;4.342;2023-02-28T14:57:23;3.90;;;1.90;;
34832;SDS011;55941;50.800;4.342;2023-02-28T15:02:41;7.60;;;1.90;;
34832;SDS011;55941;50.800;4.342;2023-02-28T15:07:44;3.95;;;1.75;;
34832;SDS011;55941;50.800;4.342;2023-02-28T15:12:52;3.10;;;1.90;;
34832;SDS011;55941;50.800;4.342;2023-02-28T15:15:33;8.10;;;2.10;;
34832;SDS011;55941;50.800;4.342;2023-02-28T15:21:12;4.68;;;2.15;;
34832;SDS011;55941;50.800;4.342;2023-02-28T15:23:48;3.30;;;2.13;;
34832;SDS011;55941;50.800;4.342;2023-02-28T15:26:19;10.30;;;2.10;;
34832;SDS011;55941;50.800;4.342;2023-02-28T15:28:49;3.65;;;1.88;;
34832;SDS011;55941;50.800;4.342;2023-02-28T15:31:30;10.10;;;2.10;;
34832;SDS011;55941;50.800;4.342;2023-02-28T15:34:06;8.77;;;2.08;;
34832;SDS011;55941;50.800;4.342;2023-02-28T15:36:43;5.03;;;2.03;;
34832;SDS011;55941;50.800;4.342;2023-02-28T15:39:20;7.90;;;2.00;;
34832;SDS011;55941;50.800;4.342;2023-02-28T15:41:48;3.55;;;2.00;;
34832;SDS011;55941;50.800;4.342;2023-02-28T15:44:23;8.80;;;2.25;;
34832;SDS011;55941;50.800;4.342;2023-02-28T15:47:02;4.30;;;2.00;;
34832;SDS011;55941;50.800;4.342;2023-02-28T15:53:11;10.80;;;2.38;;
34832;SDS011;55941;50.800;4.342;2023-02-28T15:55:11;4.00;;;2.40;;
34832;SDS011;55941;50.800;4.342;2023-02-28T15:57:44;18.35;;;2.40;;
34832;SDS011;55941;50.800;4.342;2023-02-28T16:00:14;9.95;;;2.10;;
34832;SDS011;55941;50.800;4.342;2023-02-28T16:02:41;4.80;;;2.65;;
34832;SDS011;55941;50.800;4.342;2023-02-28T16:07:36;8.25;;;3.25;;
34832;SDS011;55941;50.800;4.342;2023-02-28T16:10:04;5.85;;;3.22;;
34832;SDS011;55941;50.800;4.342;2023-02-28T16:12:32;5.50;;;2.75;;
34832;SDS011;55941;50.800;4.342;2023-02-28T16:15:01;3.47;;;2.13;;
34832;SDS011;55941;50.800;4.342;2023-02-28T16:17:45;3.40;;;2.20;;
34832;SDS011;55941;50.800;4.342;2023-02-28T16:20:14;6.53;;;2.15;;
34832;SDS011;55941;50.800;4.342;2023-02-28T16:22:45;6.05;;;2.03;;
34832;SDS011;55941;50.800;4.342;2023-02-28T16:25:14;4.90;;;2.47;;
34832;SDS011;55941;50.800;4.342;2023-02-28T16:27:42;6.13;;;2.87;;
34832;SDS011;55941;50.800;4.342;2023-02-28T16:30:15;6.07;;;2.13;;
34832;SDS011;55941;50.800;4.342;2023-02-28T16:32:45;11.13;;;2.60;;
34832;SDS011;55941;50.800;4.342;2023-02-28T16:35:12;12.10;;;3.05;;
34832;SDS011;55941;50.800;4.342;2023-02-28T16:37:39;5.78;;;2.60;;
34832;SDS011;55941;50.800;4.342;2023-02-28T16:40:18;7.63;;;2.83;;
34832;SDS011;55941;50.800;4.342;2023-02-28T16:42:46;4.10;;;2.55;;
34832;SDS011;55941;50.800;4.342;2023-02-28T16:45:18;4.28;;;2.35;;
34832;SDS011;55941;50.800;4.342;2023-02-28T16:47:46;4.85;;;2.17;;
34832;SDS011;55941;50.800;4.342;2023-02-28T16:50:13;5.18;;;2.80;;
34832;SDS011;55941;50.800;4.342;2023-02-28T16:52:45;4.57;;;2.60;;
34832;SDS011;55941;50.800;4.342;2023-02-28T16:55:11;8.05;;;2.75;;
34832;SDS011;55941;50.800;4.342;2023-02-28T16:57:37;4.80;;;2.40;;
34832;SDS011;55941;50.800;4.342;2023-02-28T17:00:05;6.13;;;2.72;;
34832;SDS011;55941;50.800;4.342;2023-02-28T17:02:33;9.00;;;2.97;;
34832;SDS011;55941;50.800;4.342;2023-02-28T17:04:59;4.70;;;2.60;;
34832;SDS011;55941;50.800;4.342;2023-02-28T17:07:25;5.38;;;2.85;;
34832;SDS011;55941;50.800;4.342;2023-02-28T17:09:51;4.95;;;2.53;;
34832;SDS011;55941;50.800;4.342;2023-02-28T17:12:17;5.18;;;2.55;;
34832;SDS011;55941;50.800;4.342;2023-02-28T17:14:43;4.55;;;2.50;;
34832;SDS011;55941;50.800;4.342;2023-02-28T17:17:10;10.52;;;2.67;;
34832;SDS011;55941;50.800;4.342;2023-02-28T17:19:43;6.78;;;2.55;;
34832;SDS011;55941;50.800;4.342;2023-02-28T17:22:09;4.80;;;2.58;;
34832;SDS011;55941;50.800;4.342;2023-02-28T17:24:35;7.32;;;2.78;;
34832;SDS011;55941;50.800;4.342;2023-02-28T17:27:01;7.35;;;2.85;;
34832;SDS011;55941;50.800;4.342;2023-02-28T17:29:27;7.03;;;2.42;;
34832;SDS011;55941;50.800;4.342;2023-02-28T17:31:53;3.50;;;2.42;;
34832;SDS011;55941;50.800;4.342;2023-02-28T17:34:20;4.38;;;2.58;;
34832;SDS011;55941;50.800;4.342;2023-02-28T17:36:47;8.63;;;3.10;;
34832;SDS011;55941;50.800;4.342;2023-02-28T17:39:15;9.20;;;2.88;;
34832;SDS011;55941;50.800;4.342;2023-02-28T17:41:51;10.27;;;2.95;;
34832;SDS011;55941;50.800;4.342;2023-02-28T17:44:20;8.23;;;3.17;;
34832;SDS011;55941;50.800;4.342;2023-02-28T17:46:48;5.88;;;2.60;;
34832;SDS011;55941;50.800;4.342;2023-02-28T17:49:15;11.02;;;3.13;;
34832;SDS011;55941;50.800;4.342;2023-02-28T17:51:42;6.07;;;2.58;;
34832;SDS011;55941;50.800;4.342;2023-02-28T17:54:08;14.20;;;3.38;;
34832;SDS011;55941;50.800;4.342;2023-02-28T17:56:34;10.85;;;3.10;;
34832;SDS011;55941;50.800;4.342;2023-02-28T17:59:00;7.57;;;3.70;;
34832;SDS011;55941;50.800;4.342;2023-02-28T18:01:26;8.70;;;3.08;;
34832;SDS011;55941;50.800;4.342;2023-02-28T18:03:52;13.32;;;3.22;;